Airport View

Enter AWOS ICAO identifier for current METAR.

ex. KFNL

K6L4 101555Z AUTO 25003KT 10SM CLR 27/20 A3014 RMK AO2

10 Aug 2020 15:58

Frequency: 119.375

Phone: 304-752-0814

Other Area AWOS: KI16 - KCRW - KSJS - KPBX

KCRW 101446Z 1015/1112 VRB04KT P6SM FEW050 FM110400 00000KT P6SM FEW080 FM110800 00000KT 2SM BR SCT001 FM110900 00000KT 1/2SM FG VV001